createdAt,value
2023-05-07T00:00:53.702Z,5.70
2023-05-07T00:03:26.226Z,5.13
2023-05-07T00:05:56.712Z,6.00
2023-05-07T00:08:26.402Z,5.72
2023-05-07T00:10:56.240Z,6.30
2023-05-07T00:13:25.870Z,5.50
2023-05-07T00:15:55.463Z,5.95
2023-05-07T00:18:27.614Z,5.40
2023-05-07T00:20:57.436Z,5.30
2023-05-07T00:23:27.099Z,5.40
2023-05-07T00:25:56.671Z,6.00
2023-05-07T00:28:26.240Z,6.10
2023-05-07T00:30:56.616Z,5.78
2023-05-07T00:33:28.902Z,5.15
2023-05-07T00:35:58.394Z,5.32
2023-05-07T00:38:27.934Z,5.15
2023-05-07T00:40:57.461Z,5.55
2023-05-07T00:43:26.998Z,5.50
2023-05-07T00:45:56.688Z,5.60
2023-05-07T00:48:29.679Z,5.57
2023-05-07T00:51:00.323Z,5.95
2023-05-07T00:53:29.962Z,5.40
2023-05-07T00:55:59.660Z,5.75
2023-05-07T00:58:29.218Z,5.78
2023-05-07T01:00:59.242Z,3.55
2023-05-07T01:03:31.479Z,5.47
2023-05-07T01:06:03.700Z,5.90
2023-05-07T01:08:36.244Z,6.00
2023-05-07T01:11:06.070Z,5.90
2023-05-07T01:13:36.284Z,6.15
2023-05-07T01:16:06.781Z,6.80
2023-05-07T01:18:38.899Z,5.63
2023-05-07T01:21:09.348Z,6.53
2023-05-07T01:23:43.635Z,5.85
2023-05-07T01:26:13.118Z,6.45
2023-05-07T01:28:42.730Z,6.00
2023-05-07T01:31:13.272Z,6.88
2023-05-07T01:33:45.884Z,6.40
2023-05-07T01:36:18.565Z,4.32
2023-05-07T01:38:51.308Z,6.85
2023-05-07T01:41:21.187Z,5.13
2023-05-07T01:43:51.244Z,6.45
2023-05-07T01:46:21.855Z,5.68
2023-05-07T01:48:51.702Z,6.10
2023-05-07T01:51:22.418Z,6.45
2023-05-07T01:53:56.577Z,6.20
2023-05-07T01:56:26.514Z,6.05
2023-05-07T01:58:56.236Z,6.47
2023-05-07T02:01:25.970Z,6.90
2023-05-07T02:03:55.792Z,6.55
2023-05-07T02:06:25.524Z,6.50
2023-05-07T02:08:57.617Z,6.03
2023-05-07T02:11:27.179Z,6.28
2023-05-07T02:13:56.871Z,6.30
2023-05-07T02:16:26.508Z,4.68
2023-05-07T02:18:56.112Z,6.00
2023-05-07T02:21:25.679Z,6.05
2023-05-07T02:23:57.727Z,5.00
2023-05-07T02:26:27.278Z,6.82
2023-05-07T02:28:56.780Z,6.90
2023-05-07T02:31:26.385Z,6.18
2023-05-07T02:33:55.910Z,7.63
2023-05-07T02:36:25.559Z,7.50
2023-05-07T02:38:57.662Z,6.47
2023-05-07T02:41:27.290Z,6.63
2023-05-07T02:43:56.802Z,6.40
2023-05-07T02:46:26.414Z,5.05
2023-05-07T02:48:55.984Z,6.50
2023-05-07T02:51:27.183Z,5.50
2023-05-07T02:53:59.276Z,6.25
2023-05-07T02:56:29.859Z,6.55
2023-05-07T02:58:59.660Z,7.07
2023-05-07T03:01:29.170Z,6.35
2023-05-07T03:03:59.133Z,6.80
2023-05-07T03:06:28.686Z,6.13
2023-05-07T03:09:00.815Z,6.15
2023-05-07T03:11:30.449Z,6.38
2023-05-07T03:13:59.999Z,5.95
2023-05-07T03:16:29.557Z,5.97
2023-05-07T03:18:59.220Z,6.20
2023-05-07T03:21:28.824Z,7.50
2023-05-07T03:24:00.933Z,5.43
2023-05-07T03:26:30.531Z,6.43
2023-05-07T03:29:00.038Z,6.18
2023-05-07T03:31:29.678Z,5.70
2023-05-07T03:34:01.520Z,6.28
2023-05-07T03:36:31.806Z,5.45
2023-05-07T03:39:03.903Z,5.10
2023-05-07T03:41:33.480Z,6.30
2023-05-07T03:44:03.005Z,5.78
2023-05-07T03:46:34.047Z,2.92
2023-05-07T03:49:03.796Z,4.60
2023-05-07T03:51:34.207Z,5.40
2023-05-07T03:54:06.559Z,4.60
2023-05-07T03:56:36.092Z,5.45
2023-05-07T03:59:05.656Z,6.32
2023-05-07T04:01:35.228Z,5.03
2023-05-07T04:04:05.594Z,5.00
2023-05-07T04:06:35.391Z,7.13
2023-05-07T04:09:07.729Z,7.22
2023-05-07T04:11:37.276Z,8.63
2023-05-07T04:14:06.853Z,8.68
2023-05-07T04:16:36.448Z,8.40
2023-05-07T04:19:06.898Z,9.52
2023-05-07T04:21:36.402Z,9.20
2023-05-07T04:24:09.909Z,7.40
2023-05-07T04:26:39.448Z,8.93
2023-05-07T04:29:08.985Z,6.18
2023-05-07T04:31:38.554Z,8.13
2023-05-07T04:34:12.162Z,8.43
2023-05-07T04:36:42.132Z,8.02
2023-05-07T04:39:14.660Z,7.10
2023-05-07T04:41:44.246Z,7.30
2023-05-07T04:44:13.816Z,7.53
2023-05-07T04:46:43.397Z,7.00
2023-05-07T04:49:12.914Z,6.03
2023-05-07T04:51:45.084Z,6.63
2023-05-07T04:54:17.476Z,5.82
2023-05-07T04:56:47.037Z,3.70
2023-05-07T04:59:16.557Z,6.07
2023-05-07T05:01:46.098Z,4.80
2023-05-07T05:04:15.693Z,5.70
2023-05-07T05:06:45.220Z,4.75
2023-05-07T05:09:17.621Z,5.00
2023-05-07T05:11:47.498Z,5.97
2023-05-07T05:14:17.232Z,6.20
2023-05-07T05:16:46.767Z,5.88
2023-05-07T05:19:16.406Z,5.43
2023-05-07T05:21:45.958Z,6.40
2023-05-07T05:24:18.060Z,5.78
2023-05-07T05:26:47.580Z,5.90
2023-05-07T05:29:17.134Z,6.38
2023-05-07T05:31:46.682Z,5.45
2023-05-07T05:34:16.275Z,6.32
2023-05-07T05:36:45.842Z,6.07
2023-05-07T05:39:18.097Z,6.10
2023-05-07T05:41:47.626Z,5.55
2023-05-07T05:44:17.162Z,5.80
2023-05-07T05:46:46.811Z,4.97
2023-05-07T05:49:16.409Z,5.72
2023-05-07T05:51:47.135Z,5.57
2023-05-07T05:54:19.253Z,5.28
2023-05-07T05:56:48.828Z,4.75
2023-05-07T05:59:18.573Z,3.90
2023-05-07T06:01:48.190Z,5.35
2023-05-07T06:04:17.721Z,5.30
2023-05-07T06:06:47.259Z,5.32
2023-05-07T06:09:19.387Z,5.85
2023-05-07T06:11:48.910Z,4.22
2023-05-07T06:14:18.445Z,4.93
2023-05-07T06:16:48.189Z,5.60
2023-05-07T06:19:19.300Z,5.60
2023-05-07T06:21:48.869Z,5.25
2023-05-07T06:24:21.146Z,5.70
2023-05-07T06:26:50.755Z,6.00
2023-05-07T06:29:20.285Z,5.18
2023-05-07T06:31:50.148Z,5.30
2023-05-07T06:34:19.773Z,4.82
2023-05-07T06:36:49.352Z,4.95
2023-05-07T06:39:21.650Z,4.88
2023-05-07T06:41:51.387Z,5.35
2023-05-07T06:44:20.941Z,5.47
2023-05-07T06:46:50.652Z,4.72
2023-05-07T06:49:20.235Z,4.10
2023-05-07T06:51:49.825Z,3.70
2023-05-07T06:54:24.310Z,5.05
2023-05-07T06:56:54.048Z,3.90
2023-05-07T06:59:23.625Z,4.15
2023-05-07T07:01:53.312Z,4.07
2023-05-07T07:04:23.559Z,3.95
2023-05-07T07:06:53.216Z,4.25
2023-05-07T07:09:25.300Z,3.97
2023-05-07T07:11:54.832Z,5.35
2023-05-07T07:14:24.306Z,4.22
2023-05-07T07:16:53.875Z,5.03
2023-05-07T07:19:23.774Z,4.30
2023-05-07T07:21:53.309Z,4.05
2023-05-07T07:24:25.435Z,4.10
2023-05-07T07:26:56.512Z,4.05
2023-05-07T07:29:27.789Z,4.15
2023-05-07T07:31:57.497Z,3.78
2023-05-07T07:34:27.270Z,3.92
2023-05-07T07:36:57.407Z,3.38
2023-05-07T07:39:29.591Z,4.60
2023-05-07T07:41:59.122Z,4.00
2023-05-07T07:44:28.694Z,5.00
2023-05-07T07:46:58.370Z,4.47
2023-05-07T07:49:28.024Z,5.05
2023-05-07T07:51:57.939Z,4.80
2023-05-07T07:54:30.467Z,5.45
2023-05-07T07:56:59.984Z,6.00
2023-05-07T07:59:29.488Z,5.57
2023-05-07T08:01:59.420Z,5.38
2023-05-07T08:04:29.077Z,4.78
2023-05-07T08:06:58.838Z,5.50
2023-05-07T08:09:30.984Z,6.03
2023-05-07T08:12:00.664Z,5.45
2023-05-07T08:14:30.176Z,4.75
2023-05-07T08:16:59.839Z,5.32
2023-05-07T08:19:29.541Z,6.07
2023-05-07T08:21:59.300Z,5.90
2023-05-07T08:24:31.599Z,6.07
2023-05-07T08:27:01.276Z,5.60
2023-05-07T08:29:30.939Z,5.72
2023-05-07T08:32:00.493Z,5.65
2023-05-07T08:34:30.046Z,5.00
2023-05-07T08:36:59.579Z,5.68
2023-05-07T08:39:31.692Z,5.65
2023-05-07T08:42:05.902Z,6.32
2023-05-07T08:44:37.924Z,6.07
2023-05-07T08:47:09.974Z,6.50
2023-05-07T08:49:39.879Z,6.80
2023-05-07T08:52:10.237Z,7.07
2023-05-07T08:54:44.002Z,7.55
2023-05-07T08:57:13.599Z,7.38
2023-05-07T08:59:44.280Z,4.45
2023-05-07T09:02:15.809Z,5.60
2023-05-07T09:04:45.871Z,5.45
2023-05-07T09:07:15.435Z,5.70
2023-05-07T09:09:48.502Z,5.13
2023-05-07T09:12:18.052Z,5.68
2023-05-07T09:14:47.639Z,3.88
2023-05-07T09:17:17.417Z,5.22
2023-05-07T09:19:48.445Z,4.32
2023-05-07T09:22:18.275Z,5.25
2023-05-07T09:24:54.500Z,4.90
2023-05-07T09:29:54.274Z,4.68
2023-05-07T09:32:23.874Z,5.57
2023-05-07T09:34:53.608Z,5.93
2023-05-07T09:37:23.160Z,6.00
2023-05-07T09:39:55.355Z,5.82
2023-05-07T09:42:27.795Z,4.47
2023-05-07T09:44:57.465Z,6.35
2023-05-07T09:47:28.405Z,6.00
2023-05-07T09:50:01.460Z,6.32
2023-05-07T09:52:34.570Z,5.80
2023-05-07T09:55:07.644Z,6.03
2023-05-07T09:57:38.375Z,5.50
2023-05-07T10:00:12.733Z,5.03
2023-05-07T10:02:47.571Z,4.90
2023-05-07T10:05:18.379Z,5.28
2023-05-07T10:07:48.809Z,3.08
2023-05-07T10:10:21.741Z,4.55
2023-05-07T10:12:51.986Z,4.30
2023-05-07T10:15:22.435Z,5.10
2023-05-07T10:17:52.742Z,4.47
2023-05-07T10:20:22.459Z,4.30
2023-05-07T10:22:53.706Z,4.00
2023-05-07T10:25:33.736Z,4.90
2023-05-07T10:28:08.614Z,4.78
2023-05-07T10:30:46.364Z,4.38
2023-05-07T10:33:19.192Z,3.83
2023-05-07T10:35:51.458Z,3.47
2023-05-07T10:38:21.645Z,4.10
2023-05-07T10:40:54.610Z,4.28
2023-05-07T10:43:24.236Z,3.08
2023-05-07T10:46:13.729Z,3.85
2023-05-07T10:49:12.601Z,4.22
2023-05-07T10:51:42.722Z,4.85
2023-05-07T10:54:26.170Z,4.80
2023-05-07T10:56:58.342Z,4.28
2023-05-07T10:59:46.628Z,4.25
2023-05-07T11:02:16.705Z,5.15
2023-05-07T11:04:46.387Z,4.10
2023-05-07T11:07:34.937Z,4.07
2023-05-07T11:10:09.537Z,4.28
2023-05-07T11:12:57.870Z,4.63
2023-05-07T11:15:43.103Z,4.38
2023-05-07T11:18:13.568Z,4.38
2023-05-07T11:20:51.759Z,4.60
2023-05-07T11:23:54.276Z,5.05
2023-05-07T11:26:24.214Z,4.97
2023-05-07T11:28:57.988Z,3.67
2023-05-07T11:31:29.890Z,4.40
2023-05-07T11:33:59.774Z,4.25
2023-05-07T11:36:34.739Z,3.72
2023-05-07T11:39:04.418Z,3.72
2023-05-07T11:41:40.797Z,3.72
2023-05-07T11:44:12.873Z,4.00
2023-05-07T11:46:47.197Z,3.80
2023-05-07T11:49:17.016Z,4.53
2023-05-07T11:51:47.770Z,4.22
2023-05-07T11:54:20.303Z,3.40
2023-05-07T11:56:50.476Z,3.75
2023-05-07T11:59:25.516Z,4.20
2023-05-07T12:01:55.062Z,3.35
2023-05-07T12:04:24.784Z,3.65
2023-05-07T12:06:57.874Z,3.80
2023-05-07T12:09:27.629Z,4.20
2023-05-07T12:11:57.437Z,4.10
2023-05-07T12:14:31.447Z,4.20
2023-05-07T12:17:03.339Z,4.82
2023-05-07T12:19:33.209Z,4.90
2023-05-07T12:22:02.899Z,4.07
2023-05-07T12:24:32.536Z,3.90
2023-05-07T12:27:03.804Z,4.38
2023-05-07T12:29:35.891Z,4.05
2023-05-07T12:32:07.282Z,4.50
2023-05-07T12:34:37.019Z,4.05
2023-05-07T12:37:07.130Z,3.45
2023-05-07T12:39:36.653Z,3.70
2023-05-07T12:42:06.564Z,4.15
2023-05-07T12:44:38.888Z,4.75
2023-05-07T12:47:08.509Z,5.20
2023-05-07T12:49:39.888Z,3.53
2023-05-07T12:52:10.084Z,3.67
2023-05-07T12:54:42.191Z,4.10
2023-05-07T12:57:14.008Z,3.78
2023-05-07T12:59:46.639Z,4.57
2023-05-07T13:02:17.040Z,4.20
2023-05-07T13:04:46.535Z,4.30
2023-05-07T13:07:16.074Z,4.28
2023-05-07T13:09:45.646Z,5.10
2023-05-07T13:12:15.329Z,3.28
2023-05-07T13:14:47.461Z,4.05
2023-05-07T13:17:17.067Z,4.70
2023-05-07T13:19:46.568Z,5.75
2023-05-07T13:22:16.106Z,5.85
2023-05-07T13:24:45.676Z,4.95
2023-05-07T13:27:15.199Z,5.00
2023-05-07T13:29:47.589Z,4.45
2023-05-07T13:32:17.196Z,5.88
2023-05-07T13:34:46.732Z,4.80
2023-05-07T13:37:16.279Z,2.60
2023-05-07T13:39:45.831Z,4.63
2023-05-07T13:42:15.372Z,4.32
2023-05-07T13:44:47.672Z,3.78
2023-05-07T13:47:17.269Z,4.57
2023-05-07T13:49:46.806Z,4.40
2023-05-07T13:52:16.351Z,3.40
2023-05-07T13:54:46.213Z,5.00
2023-05-07T13:57:15.728Z,4.60
2023-05-07T13:59:47.918Z,4.43
2023-05-07T14:02:17.461Z,3.97
2023-05-07T14:04:47.026Z,3.22
2023-05-07T14:07:16.596Z,4.20
2023-05-07T14:09:46.569Z,3.78
2023-05-07T14:12:16.117Z,3.78
2023-05-07T14:14:48.550Z,3.70
2023-05-07T14:17:18.108Z,3.95
2023-05-07T14:19:48.119Z,2.70
2023-05-07T14:22:18.148Z,3.80
2023-05-07T14:24:55.897Z,3.90
2023-05-07T14:27:35.165Z,4.45
2023-05-07T14:30:07.901Z,4.95
2023-05-07T14:32:37.830Z,4.13
2023-05-07T14:35:08.320Z,3.30
2023-05-07T14:37:37.942Z,4.50
2023-05-07T14:40:08.515Z,3.58
2023-05-07T14:42:38.119Z,4.90
2023-05-07T14:45:12.204Z,3.75
2023-05-07T14:47:42.078Z,4.97
2023-05-07T14:50:12.553Z,5.15
2023-05-07T14:52:42.158Z,3.90
2023-05-07T14:55:12.736Z,4.45
2023-05-07T14:57:42.624Z,5.10
2023-05-07T15:00:16.219Z,4.80
2023-05-07T15:02:45.906Z,4.88
2023-05-07T15:05:15.805Z,4.40
2023-05-07T15:07:45.796Z,4.72
2023-05-07T15:10:17.020Z,4.97
2023-05-07T15:12:46.689Z,4.95
2023-05-07T15:15:18.899Z,4.53
2023-05-07T15:17:48.477Z,4.80
2023-05-07T15:20:18.720Z,5.20
2023-05-07T15:22:48.250Z,4.65
2023-05-07T15:25:17.763Z,4.82
2023-05-07T15:27:47.369Z,4.90
2023-05-07T15:30:21.132Z,4.13
2023-05-07T15:32:50.987Z,4.35
2023-05-07T15:35:22.990Z,4.53
2023-05-07T15:37:53.538Z,4.50
2023-05-07T15:40:23.300Z,4.75
2023-05-07T15:42:52.844Z,4.03
2023-05-07T15:45:25.391Z,3.15
2023-05-07T15:47:55.062Z,4.13
2023-05-07T15:50:24.678Z,4.60
2023-05-07T15:52:54.231Z,4.22
2023-05-07T15:55:23.832Z,3.83
2023-05-07T15:57:55.229Z,4.90
2023-05-07T16:00:30.770Z,4.88
2023-05-07T16:03:00.363Z,3.85
2023-05-07T16:05:30.042Z,4.63
2023-05-07T16:08:00.442Z,4.80
2023-05-07T16:10:30.068Z,4.25
2023-05-07T16:12:59.673Z,4.80
2023-05-07T16:15:31.830Z,4.72
2023-05-07T16:18:01.491Z,4.13
2023-05-07T16:20:32.786Z,4.10
2023-05-07T16:23:02.398Z,5.25
2023-05-07T16:25:32.098Z,4.60
2023-05-07T16:28:01.856Z,5.55
2023-05-07T16:30:34.034Z,4.95
2023-05-07T16:33:03.666Z,5.30
2023-05-07T16:35:33.214Z,5.22
2023-05-07T16:38:09.987Z,5.10
2023-05-07T16:40:41.214Z,4.05
2023-05-07T16:43:11.623Z,4.15
2023-05-07T16:45:43.747Z,6.05
2023-05-07T16:48:13.340Z,5.03
2023-05-07T16:50:44.692Z,4.50
2023-05-07T16:53:14.694Z,4.80
2023-05-07T16:55:44.290Z,3.92
2023-05-07T16:58:15.561Z,4.43
2023-05-07T17:00:51.067Z,3.75
2023-05-07T17:03:21.190Z,4.47
2023-05-07T17:05:50.825Z,4.85
2023-05-07T17:08:20.393Z,4.15
2023-05-07T17:10:49.919Z,4.55
2023-05-07T17:13:19.496Z,4.38
2023-05-07T17:15:51.727Z,4.50
2023-05-07T17:18:21.264Z,3.90
2023-05-07T17:20:50.806Z,4.00
2023-05-07T17:23:20.460Z,3.58
2023-05-07T17:25:50.015Z,4.38
2023-05-07T17:28:19.568Z,3.50
2023-05-07T17:30:52.504Z,4.80
2023-05-07T17:33:22.505Z,3.65
2023-05-07T17:35:52.171Z,4.57
2023-05-07T17:38:21.862Z,2.70
2023-05-07T17:40:51.731Z,3.85
2023-05-07T17:43:22.961Z,4.88
2023-05-07T17:45:55.207Z,4.78
2023-05-07T17:48:25.042Z,5.05
2023-05-07T17:50:54.618Z,3.95
2023-05-07T17:53:24.836Z,5.63
2023-05-07T17:55:55.699Z,4.97
2023-05-07T17:58:25.836Z,3.65
2023-05-07T18:00:58.867Z,4.03
2023-05-07T18:03:29.380Z,3.53
2023-05-07T18:05:59.045Z,4.22
2023-05-07T18:08:28.701Z,4.70
2023-05-07T18:10:58.350Z,4.28
2023-05-07T18:13:27.933Z,4.47
2023-05-07T18:16:00.175Z,4.63
2023-05-07T18:18:31.127Z,4.70
2023-05-07T18:21:01.299Z,3.83
2023-05-07T18:23:30.931Z,5.22
2023-05-07T18:26:00.775Z,5.22
2023-05-07T18:28:30.436Z,5.30
2023-05-07T18:31:02.593Z,6.45
2023-05-07T18:33:32.132Z,3.88
2023-05-07T18:36:01.763Z,4.07
2023-05-07T18:38:31.369Z,4.93
2023-05-07T18:41:04.340Z,4.72
2023-05-07T18:43:34.234Z,5.95
2023-05-07T18:46:06.782Z,5.13
2023-05-07T18:48:36.527Z,5.65
2023-05-07T18:51:06.356Z,5.70
2023-05-07T18:53:35.954Z,5.90
2023-05-07T18:56:06.717Z,6.60
2023-05-07T18:58:36.667Z,5.30
2023-05-07T19:01:10.865Z,6.25
2023-05-07T19:03:40.527Z,5.80
2023-05-07T19:06:10.071Z,6.30
2023-05-07T19:08:39.608Z,6.40
2023-05-07T19:11:09.216Z,6.22
2023-05-07T19:13:38.745Z,5.97
2023-05-07T19:16:13.624Z,6.13
2023-05-07T19:18:43.596Z,5.85
2023-05-07T19:21:13.476Z,5.50
2023-05-07T19:23:44.462Z,6.20
2023-05-07T19:26:14.747Z,5.88
2023-05-07T19:28:45.820Z,5.68
2023-05-07T19:31:27.863Z,6.07
2023-05-07T19:33:57.625Z,6.07
2023-05-07T19:36:27.169Z,4.53
2023-05-07T19:38:56.726Z,6.93
2023-05-07T19:41:29.154Z,6.70
2023-05-07T19:43:58.735Z,3.08
2023-05-07T19:46:30.865Z,6.57
2023-05-07T19:49:01.567Z,5.68
2023-05-07T19:51:32.952Z,5.60
2023-05-07T19:54:02.720Z,5.90
2023-05-07T19:56:32.350Z,4.75
2023-05-07T19:59:01.894Z,6.22
2023-05-07T20:01:34.069Z,5.97
2023-05-07T20:04:03.701Z,4.90
2023-05-07T20:06:33.497Z,4.65
2023-05-07T20:09:03.084Z,4.88
2023-05-07T20:11:32.652Z,4.90
2023-05-07T20:14:02.238Z,4.75
2023-05-07T20:16:36.524Z,5.43
2023-05-07T20:19:06.160Z,5.50
2023-05-07T20:21:35.809Z,5.00
2023-05-07T20:24:05.382Z,4.75
2023-05-07T20:26:34.949Z,5.60
2023-05-07T20:29:04.552Z,6.28
2023-05-07T20:31:36.736Z,5.80
2023-05-07T20:34:06.404Z,6.03
2023-05-07T20:36:36.138Z,5.68
2023-05-07T20:39:05.911Z,5.57
2023-05-07T20:41:35.459Z,6.07
2023-05-07T20:44:05.152Z,4.90
2023-05-07T20:46:37.486Z,4.85
2023-05-07T20:49:07.119Z,3.90
2023-05-07T20:51:37.084Z,4.78
2023-05-07T20:54:08.718Z,6.00
2023-05-07T20:56:38.347Z,6.80
2023-05-07T20:59:08.146Z,4.47
2023-05-07T21:01:40.862Z,5.22
2023-05-07T21:04:10.519Z,5.90
2023-05-07T21:06:40.578Z,6.13
2023-05-07T21:09:10.130Z,3.75
2023-05-07T21:11:39.693Z,4.50
2023-05-07T21:14:09.264Z,5.38
2023-05-07T21:16:43.108Z,5.03
2023-05-07T21:19:12.781Z,4.70
2023-05-07T21:21:42.326Z,5.18
2023-05-07T21:24:11.903Z,5.00
2023-05-07T21:26:41.595Z,5.00
2023-05-07T21:29:11.650Z,5.22
2023-05-07T21:31:43.910Z,5.20
2023-05-07T21:34:13.524Z,4.72
2023-05-07T21:36:43.043Z,4.68
2023-05-07T21:39:12.676Z,5.30
2023-05-07T21:41:42.252Z,5.05
2023-05-07T21:44:11.771Z,4.88
2023-05-07T21:46:44.036Z,4.80
2023-05-07T21:49:13.666Z,5.00
2023-05-07T21:51:43.234Z,4.90
2023-05-07T21:54:12.746Z,5.18
2023-05-07T21:56:42.261Z,5.60
2023-05-07T21:59:11.826Z,5.75
2023-05-07T22:01:43.976Z,5.63
2023-05-07T22:04:13.551Z,5.63
2023-05-07T22:06:43.032Z,6.57
2023-05-07T22:09:13.078Z,5.65
2023-05-07T22:11:42.657Z,5.50
2023-05-07T22:14:12.187Z,5.70
2023-05-07T22:16:44.302Z,6.10
2023-05-07T22:19:14.606Z,5.35
2023-05-07T22:21:44.143Z,6.13
2023-05-07T22:24:13.681Z,5.60
2023-05-07T22:26:43.277Z,5.72
2023-05-07T22:29:12.847Z,6.10
2023-05-07T22:31:45.055Z,6.32
2023-05-07T22:34:14.701Z,6.38
2023-05-07T22:36:44.415Z,7.18
2023-05-07T22:39:13.927Z,7.25
2023-05-07T22:41:43.563Z,7.63
2023-05-07T22:44:13.096Z,8.50
2023-05-07T22:46:45.296Z,9.27
2023-05-07T22:49:14.833Z,9.82
2023-05-07T22:51:44.369Z,10.32
2023-05-07T22:54:13.881Z,9.98
2023-05-07T22:56:43.509Z,10.07
2023-05-07T22:59:13.478Z,9.73
2023-05-07T23:01:45.698Z,9.70
2023-05-07T23:04:15.373Z,10.50
2023-05-07T23:06:45.113Z,9.80
2023-05-07T23:09:15.063Z,10.00
2023-05-07T23:11:44.676Z,9.95
2023-05-07T23:14:14.234Z,11.38
2023-05-07T23:16:46.810Z,11.05
2023-05-07T23:19:16.474Z,11.10
2023-05-07T23:21:46.007Z,10.60
2023-05-07T23:24:15.589Z,10.98
2023-05-07T23:26:45.097Z,11.30
2023-05-07T23:29:14.611Z,11.75
2023-05-07T23:31:46.735Z,11.45
2023-05-07T23:34:23.856Z,10.75
2023-05-07T23:36:54.133Z,12.00
2023-05-07T23:39:23.842Z,11.23
2023-05-07T23:41:53.380Z,11.48
2023-05-07T23:44:22.997Z,10.88
2023-05-07T23:46:55.164Z,11.13
2023-05-07T23:49:24.635Z,11.55
2023-05-07T23:51:54.202Z,12.13
2023-05-07T23:54:23.718Z,10.77
2023-05-07T23:56:53.293Z,11.27
2023-05-07T23:59:22.820Z,10.90
